sensor_id;sensor_type;location;lat;lon;timestamp;P1;durP1;ratioP1;P2;durP2;ratioP2
74777;SDS011;63298;53.164;8.610;2022-12-18T00:01:21;25.85;;;10.15;;
74777;SDS011;63298;53.164;8.610;2022-12-18T00:03:46;33.53;;;11.43;;
74777;SDS011;63298;53.164;8.610;2022-12-18T00:06:13;31.92;;;11.75;;
74777;SDS011;63298;53.164;8.610;2022-12-18T00:08:39;32.03;;;12.23;;
74777;SDS011;63298;53.164;8.610;2022-12-18T00:11:05;36.10;;;12.70;;
74777;SDS011;63298;53.164;8.610;2022-12-18T00:13:32;30.90;;;12.07;;
74777;SDS011;63298;53.164;8.610;2022-12-18T00:16:01;30.05;;;11.13;;
74777;SDS011;63298;53.164;8.610;2022-12-18T00:18:31;29.95;;;11.10;;
74777;SDS011;63298;53.164;8.610;2022-12-18T00:21:00;35.55;;;11.90;;
74777;SDS011;63298;53.164;8.610;2022-12-18T00:25:53;31.42;;;11.15;;
74777;SDS011;63298;53.164;8.610;2022-12-18T00:28:18;19.88;;;9.93;;
74777;SDS011;63298;53.164;8.610;2022-12-18T00:30:43;30.13;;;10.38;;
74777;SDS011;63298;53.164;8.610;2022-12-18T00:33:09;28.50;;;10.35;;
74777;SDS011;63298;53.164;8.610;2022-12-18T00:35:34;30.65;;;11.18;;
74777;SDS011;63298;53.164;8.610;2022-12-18T00:37:59;29.80;;;10.50;;
74777;SDS011;63298;53.164;8.610;2022-12-18T00:40:25;32.40;;;12.27;;
74777;SDS011;63298;53.164;8.610;2022-12-18T00:42:50;31.63;;;12.30;;
74777;SDS011;63298;53.164;8.610;2022-12-18T00:45:15;27.80;;;10.40;;
74777;SDS011;63298;53.164;8.610;2022-12-18T00:47:40;28.40;;;11.05;;
74777;SDS011;63298;53.164;8.610;2022-12-18T00:50:06;26.63;;;10.93;;
74777;SDS011;63298;53.164;8.610;2022-12-18T00:52:32;32.50;;;11.77;;
74777;SDS011;63298;53.164;8.610;2022-12-18T00:54:57;27.95;;;11.50;;
74777;SDS011;63298;53.164;8.610;2022-12-18T00:57:22;35.57;;;12.07;;
74777;SDS011;63298;53.164;8.610;2022-12-18T00:59:48;30.35;;;10.73;;
74777;SDS011;63298;53.164;8.610;2022-12-18T01:02:13;27.60;;;10.10;;
74777;SDS011;63298;53.164;8.610;2022-12-18T01:04:38;32.97;;;12.10;;
74777;SDS011;63298;53.164;8.610;2022-12-18T01:07:04;32.25;;;11.45;;
74777;SDS011;63298;53.164;8.610;2022-12-18T01:09:29;33.92;;;12.13;;
74777;SDS011;63298;53.164;8.610;2022-12-18T01:11:54;30.50;;;10.23;;
74777;SDS011;63298;53.164;8.610;2022-12-18T01:14:20;23.90;;;9.73;;
74777;SDS011;63298;53.164;8.610;2022-12-18T01:16:45;29.48;;;11.20;;
74777;SDS011;63298;53.164;8.610;2022-12-18T01:19:11;29.05;;;10.55;;
74777;SDS011;63298;53.164;8.610;2022-12-18T01:21:36;32.50;;;12.13;;
74777;SDS011;63298;53.164;8.610;2022-12-18T01:24:01;32.97;;;11.45;;
74777;SDS011;63298;53.164;8.610;2022-12-18T01:26:27;20.00;;;8.98;;
74777;SDS011;63298;53.164;8.610;2022-12-18T01:28:54;28.40;;;10.32;;
74777;SDS011;63298;53.164;8.610;2022-12-18T01:31:21;34.00;;;12.05;;
74777;SDS011;63298;53.164;8.610;2022-12-18T01:33:50;29.88;;;11.60;;
74777;SDS011;63298;53.164;8.610;2022-12-18T01:36:16;28.90;;;10.98;;
74777;SDS011;63298;53.164;8.610;2022-12-18T01:38:42;28.98;;;11.38;;
74777;SDS011;63298;53.164;8.610;2022-12-18T01:41:08;33.05;;;12.45;;
74777;SDS011;63298;53.164;8.610;2022-12-18T01:46:25;33.20;;;12.18;;
74777;SDS011;63298;53.164;8.610;2022-12-18T01:48:56;27.35;;;10.65;;
74777;SDS011;63298;53.164;8.610;2022-12-18T01:51:24;33.58;;;12.23;;
74777;SDS011;63298;53.164;8.610;2022-12-18T01:53:51;33.00;;;11.77;;
74777;SDS011;63298;53.164;8.610;2022-12-18T01:56:18;26.35;;;11.68;;
74777;SDS011;63298;53.164;8.610;2022-12-18T02:01:18;26.65;;;10.77;;
74777;SDS011;63298;53.164;8.610;2022-12-18T02:03:46;30.42;;;10.23;;
74777;SDS011;63298;53.164;8.610;2022-12-18T02:06:13;25.48;;;10.63;;
74777;SDS011;63298;53.164;8.610;2022-12-18T02:08:47;23.75;;;10.27;;
74777;SDS011;63298;53.164;8.610;2022-12-18T02:14:00;25.48;;;10.38;;
74777;SDS011;63298;53.164;8.610;2022-12-18T02:16:44;25.40;;;10.07;;
74777;SDS011;63298;53.164;8.610;2022-12-18T02:27:47;24.60;;;9.98;;
74777;SDS011;63298;53.164;8.610;2022-12-18T02:30:15;26.23;;;9.75;;
74777;SDS011;63298;53.164;8.610;2022-12-18T02:32:43;23.63;;;9.65;;
74777;SDS011;63298;53.164;8.610;2022-12-18T02:35:16;27.17;;;9.93;;
74777;SDS011;63298;53.164;8.610;2022-12-18T02:37:46;30.58;;;9.25;;
74777;SDS011;63298;53.164;8.610;2022-12-18T02:40:12;20.80;;;8.77;;
74777;SDS011;63298;53.164;8.610;2022-12-18T02:42:40;26.85;;;10.18;;
74777;SDS011;63298;53.164;8.610;2022-12-18T02:45:06;23.30;;;9.55;;
74777;SDS011;63298;53.164;8.610;2022-12-18T02:47:32;24.08;;;10.10;;
74777;SDS011;63298;53.164;8.610;2022-12-18T02:50:04;19.20;;;8.43;;
74777;SDS011;63298;53.164;8.610;2022-12-18T02:58:15;20.95;;;8.57;;
74777;SDS011;63298;53.164;8.610;2022-12-18T03:00:51;19.92;;;8.73;;
74777;SDS011;63298;53.164;8.610;2022-12-18T03:03:25;23.77;;;8.93;;
74777;SDS011;63298;53.164;8.610;2022-12-18T03:06:02;19.95;;;8.77;;
74777;SDS011;63298;53.164;8.610;2022-12-18T03:08:34;20.75;;;8.95;;
74777;SDS011;63298;53.164;8.610;2022-12-18T03:11:05;23.58;;;8.98;;
74777;SDS011;63298;53.164;8.610;2022-12-18T03:13:43;23.13;;;9.55;;
74777;SDS011;63298;53.164;8.610;2022-12-18T03:16:22;21.60;;;9.02;;
74777;SDS011;63298;53.164;8.610;2022-12-18T03:19:01;19.70;;;8.15;;
74777;SDS011;63298;53.164;8.610;2022-12-18T03:21:32;23.50;;;9.73;;
74777;SDS011;63298;53.164;8.610;2022-12-18T03:24:01;31.17;;;10.07;;
74777;SDS011;63298;53.164;8.610;2022-12-18T03:26:31;23.83;;;9.20;;
74777;SDS011;63298;53.164;8.610;2022-12-18T03:28:59;22.77;;;10.07;;
74777;SDS011;63298;53.164;8.610;2022-12-18T03:31:29;20.98;;;9.15;;
74777;SDS011;63298;53.164;8.610;2022-12-18T03:33:58;20.63;;;8.77;;
74777;SDS011;63298;53.164;8.610;2022-12-18T03:36:30;26.05;;;9.43;;
74777;SDS011;63298;53.164;8.610;2022-12-18T03:38:59;21.08;;;8.65;;
74777;SDS011;63298;53.164;8.610;2022-12-18T03:41:35;15.75;;;7.80;;
74777;SDS011;63298;53.164;8.610;2022-12-18T03:44:40;23.38;;;8.77;;
74777;SDS011;63298;53.164;8.610;2022-12-18T03:47:15;19.90;;;8.57;;
74777;SDS011;63298;53.164;8.610;2022-12-18T03:49:48;21.65;;;8.80;;
74777;SDS011;63298;53.164;8.610;2022-12-18T03:52:32;19.73;;;8.77;;
74777;SDS011;63298;53.164;8.610;2022-12-18T03:55:05;20.70;;;8.75;;
74777;SDS011;63298;53.164;8.610;2022-12-18T03:57:33;22.00;;;8.82;;
74777;SDS011;63298;53.164;8.610;2022-12-18T04:02:55;20.85;;;8.02;;
74777;SDS011;63298;53.164;8.610;2022-12-18T04:05:22;17.38;;;7.07;;
74777;SDS011;63298;53.164;8.610;2022-12-18T04:07:50;18.25;;;8.00;;
74777;SDS011;63298;53.164;8.610;2022-12-18T04:10:16;22.13;;;8.32;;
74777;SDS011;63298;53.164;8.610;2022-12-18T04:12:42;18.92;;;7.70;;
74777;SDS011;63298;53.164;8.610;2022-12-18T04:15:07;20.20;;;7.35;;
74777;SDS011;63298;53.164;8.610;2022-12-18T04:17:34;13.13;;;7.10;;
74777;SDS011;63298;53.164;8.610;2022-12-18T04:19:59;16.95;;;7.07;;
74777;SDS011;63298;53.164;8.610;2022-12-18T04:22:25;18.65;;;7.32;;
74777;SDS011;63298;53.164;8.610;2022-12-18T04:24:50;15.48;;;6.63;;
74777;SDS011;63298;53.164;8.610;2022-12-18T04:27:15;15.70;;;6.60;;
74777;SDS011;63298;53.164;8.610;2022-12-18T04:29:41;16.00;;;6.53;;
74777;SDS011;63298;53.164;8.610;2022-12-18T04:32:06;16.83;;;7.23;;
74777;SDS011;63298;53.164;8.610;2022-12-18T04:34:32;11.43;;;6.80;;
74777;SDS011;63298;53.164;8.610;2022-12-18T04:36:58;13.48;;;6.38;;
74777;SDS011;63298;53.164;8.610;2022-12-18T04:39:23;10.50;;;5.72;;
74777;SDS011;63298;53.164;8.610;2022-12-18T04:41:49;17.80;;;7.07;;
74777;SDS011;63298;53.164;8.610;2022-12-18T04:44:14;15.43;;;7.07;;
74777;SDS011;63298;53.164;8.610;2022-12-18T04:46:39;16.10;;;6.57;;
74777;SDS011;63298;53.164;8.610;2022-12-18T04:49:05;16.15;;;6.53;;
74777;SDS011;63298;53.164;8.610;2022-12-18T04:51:30;16.48;;;6.43;;
74777;SDS011;63298;53.164;8.610;2022-12-18T04:53:56;16.95;;;6.78;;
74777;SDS011;63298;53.164;8.610;2022-12-18T04:56:21;12.90;;;5.88;;
74777;SDS011;63298;53.164;8.610;2022-12-18T04:58:47;15.55;;;6.43;;
74777;SDS011;63298;53.164;8.610;2022-12-18T05:01:13;12.60;;;5.82;;
74777;SDS011;63298;53.164;8.610;2022-12-18T05:03:42;13.05;;;6.30;;
74777;SDS011;63298;53.164;8.610;2022-12-18T05:06:07;12.20;;;5.68;;
74777;SDS011;63298;53.164;8.610;2022-12-18T05:08:33;13.23;;;6.25;;
74777;SDS011;63298;53.164;8.610;2022-12-18T05:11:02;13.25;;;6.00;;
74777;SDS011;63298;53.164;8.610;2022-12-18T05:13:32;15.32;;;5.93;;
74777;SDS011;63298;53.164;8.610;2022-12-18T05:15:59;14.15;;;6.63;;
74777;SDS011;63298;53.164;8.610;2022-12-18T05:18:24;15.13;;;6.68;;
74777;SDS011;63298;53.164;8.610;2022-12-18T05:20:50;16.83;;;7.13;;
74777;SDS011;63298;53.164;8.610;2022-12-18T05:23:19;10.63;;;5.35;;
74777;SDS011;63298;53.164;8.610;2022-12-18T05:25:52;10.95;;;5.30;;
74777;SDS011;63298;53.164;8.610;2022-12-18T05:28:19;12.50;;;5.78;;
74777;SDS011;63298;53.164;8.610;2022-12-18T05:30:52;13.88;;;5.22;;
74777;SDS011;63298;53.164;8.610;2022-12-18T05:33:20;12.20;;;6.00;;
74777;SDS011;63298;53.164;8.610;2022-12-18T05:35:56;15.23;;;5.85;;
74777;SDS011;63298;53.164;8.610;2022-12-18T05:38:23;13.60;;;6.50;;
74777;SDS011;63298;53.164;8.610;2022-12-18T05:40:50;13.98;;;6.30;;
74777;SDS011;63298;53.164;8.610;2022-12-18T05:43:16;15.40;;;5.57;;
74777;SDS011;63298;53.164;8.610;2022-12-18T05:45:42;16.33;;;6.28;;
74777;SDS011;63298;53.164;8.610;2022-12-18T05:48:08;13.23;;;6.10;;
74777;SDS011;63298;53.164;8.610;2022-12-18T05:50:37;13.55;;;5.85;;
74777;SDS011;63298;53.164;8.610;2022-12-18T05:53:04;12.68;;;5.72;;
74777;SDS011;63298;53.164;8.610;2022-12-18T05:55:33;11.35;;;5.35;;
74777;SDS011;63298;53.164;8.610;2022-12-18T05:58:00;12.95;;;5.15;;
74777;SDS011;63298;53.164;8.610;2022-12-18T06:00:28;14.73;;;5.32;;
74777;SDS011;63298;53.164;8.610;2022-12-18T06:02:56;14.23;;;5.75;;
74777;SDS011;63298;53.164;8.610;2022-12-18T06:05:21;15.98;;;5.75;;
74777;SDS011;63298;53.164;8.610;2022-12-18T06:07:46;14.07;;;5.80;;
74777;SDS011;63298;53.164;8.610;2022-12-18T06:10:12;10.93;;;5.57;;
74777;SDS011;63298;53.164;8.610;2022-12-18T06:12:37;12.27;;;5.33;;
74777;SDS011;63298;53.164;8.610;2022-12-18T06:15:03;10.10;;;5.00;;
74777;SDS011;63298;53.164;8.610;2022-12-18T06:17:29;13.35;;;5.50;;
74777;SDS011;63298;53.164;8.610;2022-12-18T06:19:55;13.15;;;5.53;;
74777;SDS011;63298;53.164;8.610;2022-12-18T06:22:21;12.57;;;5.33;;
74777;SDS011;63298;53.164;8.610;2022-12-18T06:24:46;11.90;;;4.65;;
74777;SDS011;63298;53.164;8.610;2022-12-18T06:27:12;11.83;;;5.70;;
74777;SDS011;63298;53.164;8.610;2022-12-18T06:29:37;15.27;;;5.75;;
74777;SDS011;63298;53.164;8.610;2022-12-18T06:32:02;10.37;;;5.00;;
74777;SDS011;63298;53.164;8.610;2022-12-18T06:34:31;9.48;;;4.78;;
74777;SDS011;63298;53.164;8.610;2022-12-18T06:36:57;10.13;;;5.05;;
74777;SDS011;63298;53.164;8.610;2022-12-18T06:39:22;10.70;;;4.97;;
74777;SDS011;63298;53.164;8.610;2022-12-18T06:41:48;12.35;;;4.65;;
74777;SDS011;63298;53.164;8.610;2022-12-18T06:44:13;11.17;;;5.40;;
74777;SDS011;63298;53.164;8.610;2022-12-18T06:46:38;11.20;;;5.00;;
74777;SDS011;63298;53.164;8.610;2022-12-18T06:49:04;9.55;;;4.18;;
74777;SDS011;63298;53.164;8.610;2022-12-18T06:51:29;10.20;;;4.85;;
74777;SDS011;63298;53.164;8.610;2022-12-18T06:53:54;13.90;;;4.73;;
74777;SDS011;63298;53.164;8.610;2022-12-18T06:56:20;14.97;;;4.77;;
74777;SDS011;63298;53.164;8.610;2022-12-18T06:58:45;8.25;;;4.35;;
74777;SDS011;63298;53.164;8.610;2022-12-18T07:01:11;8.82;;;4.70;;
74777;SDS011;63298;53.164;8.610;2022-12-18T07:03:38;10.50;;;4.90;;
74777;SDS011;63298;53.164;8.610;2022-12-18T07:06:04;8.82;;;4.97;;
74777;SDS011;63298;53.164;8.610;2022-12-18T07:08:30;10.75;;;4.75;;
74777;SDS011;63298;53.164;8.610;2022-12-18T07:10:57;10.40;;;4.93;;
74777;SDS011;63298;53.164;8.610;2022-12-18T07:13:22;12.80;;;4.70;;
74777;SDS011;63298;53.164;8.610;2022-12-18T07:15:48;11.70;;;5.25;;
74777;SDS011;63298;53.164;8.610;2022-12-18T07:18:13;11.60;;;4.67;;
74777;SDS011;63298;53.164;8.610;2022-12-18T07:20:38;9.13;;;4.93;;
74777;SDS011;63298;53.164;8.610;2022-12-18T07:23:04;12.05;;;4.95;;
74777;SDS011;63298;53.164;8.610;2022-12-18T07:25:33;17.73;;;5.78;;
74777;SDS011;63298;53.164;8.610;2022-12-18T07:27:59;14.32;;;4.97;;
74777;SDS011;63298;53.164;8.610;2022-12-18T07:30:24;8.60;;;4.43;;
74777;SDS011;63298;53.164;8.610;2022-12-18T07:32:50;9.23;;;4.65;;
74777;SDS011;63298;53.164;8.610;2022-12-18T07:35:15;9.67;;;4.50;;
74777;SDS011;63298;53.164;8.610;2022-12-18T07:37:40;10.13;;;4.55;;
74777;SDS011;63298;53.164;8.610;2022-12-18T07:40:06;9.00;;;3.53;;
74777;SDS011;63298;53.164;8.610;2022-12-18T07:42:32;9.15;;;4.22;;
74777;SDS011;63298;53.164;8.610;2022-12-18T07:44:57;9.77;;;4.22;;
74777;SDS011;63298;53.164;8.610;2022-12-18T07:47:23;12.15;;;5.20;;
74777;SDS011;63298;53.164;8.610;2022-12-18T07:49:49;10.32;;;5.00;;
74777;SDS011;63298;53.164;8.610;2022-12-18T07:52:14;12.48;;;5.28;;
74777;SDS011;63298;53.164;8.610;2022-12-18T07:54:39;10.98;;;4.80;;
74777;SDS011;63298;53.164;8.610;2022-12-18T07:57:05;13.25;;;4.82;;
74777;SDS011;63298;53.164;8.610;2022-12-18T07:59:31;7.90;;;4.30;;
74777;SDS011;63298;53.164;8.610;2022-12-18T08:01:56;11.27;;;4.57;;
74777;SDS011;63298;53.164;8.610;2022-12-18T08:04:22;10.82;;;4.53;;
74777;SDS011;63298;53.164;8.610;2022-12-18T08:06:47;8.93;;;4.28;;
74777;SDS011;63298;53.164;8.610;2022-12-18T08:09:12;9.23;;;4.07;;
74777;SDS011;63298;53.164;8.610;2022-12-18T08:11:38;9.93;;;4.95;;
74777;SDS011;63298;53.164;8.610;2022-12-18T08:14:03;8.05;;;4.55;;
74777;SDS011;63298;53.164;8.610;2022-12-18T08:16:29;9.18;;;4.30;;
74777;SDS011;63298;53.164;8.610;2022-12-18T08:18:55;8.67;;;4.20;;
74777;SDS011;63298;53.164;8.610;2022-12-18T08:21:22;9.80;;;4.57;;
74777;SDS011;63298;53.164;8.610;2022-12-18T08:23:52;10.82;;;5.03;;
74777;SDS011;63298;53.164;8.610;2022-12-18T08:26:19;18.08;;;5.28;;
74777;SDS011;63298;53.164;8.610;2022-12-18T08:28:45;17.13;;;5.78;;
74777;SDS011;63298;53.164;8.610;2022-12-18T08:31:10;21.45;;;6.18;;
74777;SDS011;63298;53.164;8.610;2022-12-18T08:33:36;17.17;;;5.80;;
74777;SDS011;63298;53.164;8.610;2022-12-18T08:36:03;13.45;;;5.72;;
74777;SDS011;63298;53.164;8.610;2022-12-18T08:38:29;12.57;;;5.43;;
74777;SDS011;63298;53.164;8.610;2022-12-18T08:41:01;16.50;;;5.40;;
74777;SDS011;63298;53.164;8.610;2022-12-18T08:43:28;7.22;;;4.45;;
74777;SDS011;63298;53.164;8.610;2022-12-18T08:45:53;11.88;;;5.13;;
74777;SDS011;63298;53.164;8.610;2022-12-18T08:48:18;11.52;;;4.68;;
74777;SDS011;63298;53.164;8.610;2022-12-18T08:50:44;16.50;;;4.50;;
74777;SDS011;63298;53.164;8.610;2022-12-18T08:53:18;13.73;;;4.63;;
74777;SDS011;63298;53.164;8.610;2022-12-18T08:55:44;12.37;;;4.80;;
74777;SDS011;63298;53.164;8.610;2022-12-18T08:58:09;9.40;;;4.43;;
74777;SDS011;63298;53.164;8.610;2022-12-18T09:00:34;11.68;;;5.65;;
74777;SDS011;63298;53.164;8.610;2022-12-18T09:03:00;11.87;;;4.63;;
74777;SDS011;63298;53.164;8.610;2022-12-18T09:05:25;10.00;;;4.50;;
74777;SDS011;63298;53.164;8.610;2022-12-18T09:07:50;8.93;;;5.00;;
74777;SDS011;63298;53.164;8.610;2022-12-18T09:10:16;16.33;;;5.03;;
74777;SDS011;63298;53.164;8.610;2022-12-18T09:12:41;12.30;;;5.63;;
74777;SDS011;63298;53.164;8.610;2022-12-18T09:15:06;12.00;;;5.30;;
74777;SDS011;63298;53.164;8.610;2022-12-18T09:17:33;15.77;;;6.00;;
74777;SDS011;63298;53.164;8.610;2022-12-18T09:19:58;12.20;;;5.72;;
74777;SDS011;63298;53.164;8.610;2022-12-18T09:22:23;11.83;;;4.80;;
74777;SDS011;63298;53.164;8.610;2022-12-18T09:24:49;12.07;;;5.27;;
74777;SDS011;63298;53.164;8.610;2022-12-18T09:27:17;20.00;;;6.43;;
74777;SDS011;63298;53.164;8.610;2022-12-18T09:29:42;15.13;;;5.15;;
74777;SDS011;63298;53.164;8.610;2022-12-18T09:32:08;14.87;;;5.70;;
74777;SDS011;63298;53.164;8.610;2022-12-18T09:34:33;10.70;;;4.77;;
74777;SDS011;63298;53.164;8.610;2022-12-18T09:36:58;12.48;;;5.50;;
74777;SDS011;63298;53.164;8.610;2022-12-18T09:39:24;12.10;;;5.20;;
74777;SDS011;63298;53.164;8.610;2022-12-18T09:41:54;10.93;;;5.13;;
74777;SDS011;63298;53.164;8.610;2022-12-18T09:44:23;11.27;;;5.03;;
74777;SDS011;63298;53.164;8.610;2022-12-18T09:49:24;12.17;;;4.80;;
74777;SDS011;63298;53.164;8.610;2022-12-18T09:51:57;9.38;;;4.80;;
74777;SDS011;63298;53.164;8.610;2022-12-18T09:54:34;14.27;;;5.30;;
74777;SDS011;63298;53.164;8.610;2022-12-18T09:57:03;11.57;;;5.20;;
74777;SDS011;63298;53.164;8.610;2022-12-18T09:59:34;18.60;;;5.82;;
74777;SDS011;63298;53.164;8.610;2022-12-18T10:02:14;10.73;;;5.43;;
74777;SDS011;63298;53.164;8.610;2022-12-18T10:04:44;12.75;;;5.47;;
74777;SDS011;63298;53.164;8.610;2022-12-18T10:07:32;9.60;;;4.95;;
74777;SDS011;63298;53.164;8.610;2022-12-18T10:10:13;11.15;;;4.90;;
74777;SDS011;63298;53.164;8.610;2022-12-18T10:21:42;12.55;;;4.78;;
74777;SDS011;63298;53.164;8.610;2022-12-18T10:27:06;12.07;;;4.75;;
74777;SDS011;63298;53.164;8.610;2022-12-18T10:29:37;19.40;;;5.88;;
74777;SDS011;63298;53.164;8.610;2022-12-18T10:32:03;17.83;;;7.00;;
74777;SDS011;63298;53.164;8.610;2022-12-18T10:34:28;23.40;;;7.88;;
74777;SDS011;63298;53.164;8.610;2022-12-18T10:36:53;18.83;;;6.43;;
74777;SDS011;63298;53.164;8.610;2022-12-18T10:39:23;14.27;;;5.90;;
74777;SDS011;63298;53.164;8.610;2022-12-18T10:44:21;15.00;;;5.07;;
74777;SDS011;63298;53.164;8.610;2022-12-18T10:46:48;16.00;;;5.60;;
74777;SDS011;63298;53.164;8.610;2022-12-18T10:49:25;12.60;;;5.97;;
74777;SDS011;63298;53.164;8.610;2022-12-18T10:52:04;25.38;;;6.63;;
74777;SDS011;63298;53.164;8.610;2022-12-18T10:54:32;19.02;;;6.20;;
74777;SDS011;63298;53.164;8.610;2022-12-18T10:57:27;22.95;;;7.32;;
74777;SDS011;63298;53.164;8.610;2022-12-18T10:59:57;19.63;;;6.80;;
74777;SDS011;63298;53.164;8.610;2022-12-18T11:02:28;24.92;;;7.30;;
74777;SDS011;63298;53.164;8.610;2022-12-18T11:04:59;17.30;;;6.78;;
74777;SDS011;63298;53.164;8.610;2022-12-18T11:07:25;14.07;;;6.00;;
74777;SDS011;63298;53.164;8.610;2022-12-18T11:10:15;15.82;;;6.75;;
74777;SDS011;63298;53.164;8.610;2022-12-18T11:12:40;15.07;;;6.05;;
74777;SDS011;63298;53.164;8.610;2022-12-18T11:15:06;18.67;;;6.47;;
74777;SDS011;63298;53.164;8.610;2022-12-18T11:17:40;19.17;;;6.93;;
74777;SDS011;63298;53.164;8.610;2022-12-18T11:20:07;14.07;;;5.78;;
74777;SDS011;63298;53.164;8.610;2022-12-18T11:22:55;12.63;;;5.55;;
74777;SDS011;63298;53.164;8.610;2022-12-18T11:25:23;16.95;;;6.50;;
74777;SDS011;63298;53.164;8.610;2022-12-18T11:27:53;11.00;;;6.18;;
74777;SDS011;63298;53.164;8.610;2022-12-18T11:32:48;16.97;;;6.23;;
74777;SDS011;63298;53.164;8.610;2022-12-18T11:38:25;12.45;;;5.82;;
74777;SDS011;63298;53.164;8.610;2022-12-18T11:43:25;13.18;;;6.82;;
74777;SDS011;63298;53.164;8.610;2022-12-18T11:45:55;11.88;;;5.63;;
74777;SDS011;63298;53.164;8.610;2022-12-18T11:48:30;17.98;;;6.28;;
74777;SDS011;63298;53.164;8.610;2022-12-18T11:50:59;16.27;;;6.15;;
74777;SDS011;63298;53.164;8.610;2022-12-18T11:53:28;13.80;;;6.50;;
74777;SDS011;63298;53.164;8.610;2022-12-18T12:17:38;12.60;;;5.93;;
74777;SDS011;63298;53.164;8.610;2022-12-18T12:26:09;14.80;;;6.45;;
74777;SDS011;63298;53.164;8.610;2022-12-18T12:39:30;14.35;;;5.47;;
74777;SDS011;63298;53.164;8.610;2022-12-18T12:42:00;11.45;;;5.05;;
74777;SDS011;63298;53.164;8.610;2022-12-18T12:44:28;12.90;;;4.88;;
74777;SDS011;63298;53.164;8.610;2022-12-18T12:47:01;10.45;;;4.70;;
74777;SDS011;63298;53.164;8.610;2022-12-18T12:49:36;13.10;;;6.10;;
74777;SDS011;63298;53.164;8.610;2022-12-18T12:52:05;14.60;;;5.65;;
74777;SDS011;63298;53.164;8.610;2022-12-18T12:54:39;12.85;;;5.97;;
74777;SDS011;63298;53.164;8.610;2022-12-18T13:02:33;10.35;;;5.10;;
74777;SDS011;63298;53.164;8.610;2022-12-18T13:05:27;20.50;;;5.53;;
74777;SDS011;63298;53.164;8.610;2022-12-18T13:08:01;12.02;;;6.03;;
74777;SDS011;63298;53.164;8.610;2022-12-18T13:10:35;9.05;;;5.28;;
74777;SDS011;63298;53.164;8.610;2022-12-18T13:15:39;9.80;;;5.32;;
74777;SDS011;63298;53.164;8.610;2022-12-18T13:23:33;10.20;;;4.38;;
74777;SDS011;63298;53.164;8.610;2022-12-18T13:31:09;11.48;;;5.32;;
74777;SDS011;63298;53.164;8.610;2022-12-18T13:38:42;9.40;;;5.28;;
74777;SDS011;63298;53.164;8.610;2022-12-18T13:43:41;10.07;;;5.35;;
74777;SDS011;63298;53.164;8.610;2022-12-18T13:46:22;14.00;;;6.32;;
74777;SDS011;63298;53.164;8.610;2022-12-18T13:49:25;14.18;;;6.03;;
74777;SDS011;63298;53.164;8.610;2022-12-18T13:52:00;15.95;;;5.53;;
74777;SDS011;63298;53.164;8.610;2022-12-18T13:57:00;14.30;;;5.18;;
74777;SDS011;63298;53.164;8.610;2022-12-18T14:02:00;12.25;;;5.13;;
74777;SDS011;63298;53.164;8.610;2022-12-18T14:04:35;9.00;;;4.53;;
74777;SDS011;63298;53.164;8.610;2022-12-18T14:07:01;10.75;;;5.05;;
74777;SDS011;63298;53.164;8.610;2022-12-18T14:09:31;9.70;;;4.85;;
74777;SDS011;63298;53.164;8.610;2022-12-18T14:12:00;9.00;;;4.93;;
74777;SDS011;63298;53.164;8.610;2022-12-18T14:14:27;10.35;;;5.40;;
74777;SDS011;63298;53.164;8.610;2022-12-18T14:16:53;10.10;;;5.18;;
74777;SDS011;63298;53.164;8.610;2022-12-18T14:19:19;8.00;;;4.53;;
74777;SDS011;63298;53.164;8.610;2022-12-18T14:21:47;9.07;;;4.55;;
74777;SDS011;63298;53.164;8.610;2022-12-18T14:24:18;8.07;;;4.97;;
74777;SDS011;63298;53.164;8.610;2022-12-18T14:26:46;8.75;;;4.53;;
74777;SDS011;63298;53.164;8.610;2022-12-18T14:29:26;8.98;;;4.80;;
74777;SDS011;63298;53.164;8.610;2022-12-18T14:34:44;14.25;;;5.22;;
74777;SDS011;63298;53.164;8.610;2022-12-18T14:37:14;10.30;;;5.30;;
74777;SDS011;63298;53.164;8.610;2022-12-18T14:39:59;9.57;;;4.82;;
74777;SDS011;63298;53.164;8.610;2022-12-18T14:42:26;13.98;;;5.50;;
74777;SDS011;63298;53.164;8.610;2022-12-18T14:45:31;15.77;;;5.70;;
74777;SDS011;63298;53.164;8.610;2022-12-18T14:47:56;12.10;;;6.22;;
74777;SDS011;63298;53.164;8.610;2022-12-18T14:50:22;10.38;;;4.78;;
74777;SDS011;63298;53.164;8.610;2022-12-18T14:52:47;11.00;;;5.63;;
74777;SDS011;63298;53.164;8.610;2022-12-18T14:55:14;10.10;;;4.70;;
74777;SDS011;63298;53.164;8.610;2022-12-18T14:57:44;13.55;;;5.95;;
74777;SDS011;63298;53.164;8.610;2022-12-18T15:00:17;11.93;;;5.85;;
74777;SDS011;63298;53.164;8.610;2022-12-18T15:02:48;10.48;;;5.88;;
74777;SDS011;63298;53.164;8.610;2022-12-18T15:05:20;15.45;;;6.43;;
74777;SDS011;63298;53.164;8.610;2022-12-18T15:07:54;15.43;;;6.95;;
74777;SDS011;63298;53.164;8.610;2022-12-18T15:20:30;16.25;;;6.25;;
74777;SDS011;63298;53.164;8.610;2022-12-18T15:22:57;22.60;;;7.10;;
74777;SDS011;63298;53.164;8.610;2022-12-18T15:25:32;16.08;;;6.57;;
74777;SDS011;63298;53.164;8.610;2022-12-18T15:28:00;15.70;;;6.35;;
74777;SDS011;63298;53.164;8.610;2022-12-18T15:30:26;21.25;;;6.82;;
74777;SDS011;63298;53.164;8.610;2022-12-18T15:32:51;11.27;;;5.47;;
74777;SDS011;63298;53.164;8.610;2022-12-18T15:35:37;23.38;;;6.32;;
74777;SDS011;63298;53.164;8.610;2022-12-18T15:38:02;16.97;;;6.27;;
74777;SDS011;63298;53.164;8.610;2022-12-18T15:40:28;15.90;;;5.93;;
74777;SDS011;63298;53.164;8.610;2022-12-18T15:42:53;13.55;;;5.30;;
74777;SDS011;63298;53.164;8.610;2022-12-18T15:45:20;14.63;;;6.45;;
74777;SDS011;63298;53.164;8.610;2022-12-18T15:47:48;14.23;;;6.40;;
74777;SDS011;63298;53.164;8.610;2022-12-18T15:50:13;10.85;;;5.82;;
74777;SDS011;63298;53.164;8.610;2022-12-18T15:52:39;14.05;;;5.57;;
74777;SDS011;63298;53.164;8.610;2022-12-18T15:55:14;12.05;;;5.45;;
74777;SDS011;63298;53.164;8.610;2022-12-18T15:57:41;13.13;;;5.70;;
74777;SDS011;63298;53.164;8.610;2022-12-18T16:00:11;11.37;;;5.53;;
74777;SDS011;63298;53.164;8.610;2022-12-18T16:05:02;15.93;;;5.93;;
74777;SDS011;63298;53.164;8.610;2022-12-18T16:07:27;16.02;;;6.70;;
74777;SDS011;63298;53.164;8.610;2022-12-18T16:09:53;11.43;;;5.90;;
74777;SDS011;63298;53.164;8.610;2022-12-18T16:12:19;12.93;;;6.10;;
74777;SDS011;63298;53.164;8.610;2022-12-18T16:14:47;16.45;;;6.22;;
74777;SDS011;63298;53.164;8.610;2022-12-18T16:17:13;13.00;;;5.75;;
74777;SDS011;63298;53.164;8.610;2022-12-18T16:19:39;16.50;;;6.63;;
74777;SDS011;63298;53.164;8.610;2022-12-18T16:22:05;12.85;;;6.10;;
74777;SDS011;63298;53.164;8.610;2022-12-18T16:24:42;12.40;;;5.53;;
74777;SDS011;63298;53.164;8.610;2022-12-18T16:27:07;12.03;;;5.30;;
74777;SDS011;63298;53.164;8.610;2022-12-18T16:29:32;18.87;;;6.50;;
74777;SDS011;63298;53.164;8.610;2022-12-18T16:31:58;18.27;;;5.82;;
74777;SDS011;63298;53.164;8.610;2022-12-18T16:36:52;10.00;;;5.35;;
74777;SDS011;63298;53.164;8.610;2022-12-18T16:39:18;10.35;;;4.57;;
74777;SDS011;63298;53.164;8.610;2022-12-18T16:41:43;9.65;;;4.88;;
74777;SDS011;63298;53.164;8.610;2022-12-18T16:44:09;17.13;;;5.60;;
74777;SDS011;63298;53.164;8.610;2022-12-18T16:46:34;8.32;;;4.88;;
74777;SDS011;63298;53.164;8.610;2022-12-18T16:49:00;8.67;;;4.90;;
74777;SDS011;63298;53.164;8.610;2022-12-18T16:51:26;13.15;;;5.15;;
74777;SDS011;63298;53.164;8.610;2022-12-18T16:53:52;10.60;;;5.40;;
74777;SDS011;63298;53.164;8.610;2022-12-18T16:56:18;10.15;;;4.93;;
74777;SDS011;63298;53.164;8.610;2022-12-18T16:58:43;12.60;;;5.17;;
74777;SDS011;63298;53.164;8.610;2022-12-18T17:01:11;12.57;;;5.20;;